Weather at Sally Wofford Airport

Public forecast

Using degrees Fahrenheit for public forecast. Weather courtesy of forecast.io.

Closest aviation weather report (METAR) to Sally Wofford Airport

Closest report is Newport Regional Airport, 13.1 nm (24.3 km) WNW. Retrieved UTC (0 seconds ago):

Closest aviation forecast (TAF) to Sally Wofford Airport

Closest forecast is Jonesboro Municipal Airport, 19.5 nm (36.1 km) NE. Retrieved 2020/09/25 06:22 UTC (5 hours ago):

TAF KJBR 250520Z 2506/2606 36003KT P6SM BKN015 OVC020 FM251100 VRB03KT 3SM BR OVC004 FM251400 05002KT P6SM BKN015 OVC040 FM251700 VRB04KT P6SM BKN040 FM252000 VRB04KT P6SM FEW040 FM260000 00000KT P6SM BKN250